sensor_id;sensor_type;location;lat;lon;timestamp;P1;durP1;ratioP1;P2;durP2;ratioP2
71343;SDS011;59146;43.850;25.948;2023-03-16T00:02:03;39.13;;;23.23;;
71343;SDS011;59146;43.850;25.948;2023-03-16T00:04:29;42.28;;;23.23;;
71343;SDS011;59146;43.850;25.948;2023-03-16T00:06:56;42.75;;;24.38;;
71343;SDS011;59146;43.850;25.948;2023-03-16T00:09:22;48.83;;;25.05;;
71343;SDS011;59146;43.850;25.948;2023-03-16T00:11:55;40.85;;;23.58;;
71343;SDS011;59146;43.850;25.948;2023-03-16T00:14:29;39.17;;;24.10;;
71343;SDS011;59146;43.850;25.948;2023-03-16T00:16:56;44.03;;;25.83;;
71343;SDS011;59146;43.850;25.948;2023-03-16T00:19:21;37.65;;;23.70;;
71343;SDS011;59146;43.850;25.948;2023-03-16T00:21:47;39.88;;;24.63;;
71343;SDS011;59146;43.850;25.948;2023-03-16T00:24:16;43.53;;;25.95;;
71343;SDS011;59146;43.850;25.948;2023-03-16T00:26:42;45.10;;;25.85;;
71343;SDS011;59146;43.850;25.948;2023-03-16T00:29:09;51.80;;;26.83;;
71343;SDS011;59146;43.850;25.948;2023-03-16T00:31:35;44.97;;;27.13;;
71343;SDS011;59146;43.850;25.948;2023-03-16T00:34:01;42.47;;;25.92;;
71343;SDS011;59146;43.850;25.948;2023-03-16T00:36:27;43.75;;;25.88;;
71343;SDS011;59146;43.850;25.948;2023-03-16T00:38:52;44.35;;;25.10;;
71343;SDS011;59146;43.850;25.948;2023-03-16T00:41:18;42.03;;;26.23;;
71343;SDS011;59146;43.850;25.948;2023-03-16T00:43:43;41.45;;;26.30;;
71343;SDS011;59146;43.850;25.948;2023-03-16T00:46:13;41.63;;;26.10;;
71343;SDS011;59146;43.850;25.948;2023-03-16T00:48:41;45.55;;;27.77;;
71343;SDS011;59146;43.850;25.948;2023-03-16T00:51:12;50.03;;;28.30;;
71343;SDS011;59146;43.850;25.948;2023-03-16T00:53:40;47.72;;;27.45;;
71343;SDS011;59146;43.850;25.948;2023-03-16T00:56:07;48.65;;;27.70;;
71343;SDS011;59146;43.850;25.948;2023-03-16T00:58:34;47.25;;;27.50;;
71343;SDS011;59146;43.850;25.948;2023-03-16T01:01:02;53.38;;;28.88;;
71343;SDS011;59146;43.850;25.948;2023-03-16T01:03:32;45.85;;;27.50;;
71343;SDS011;59146;43.850;25.948;2023-03-16T01:06:02;46.38;;;28.70;;
71343;SDS011;59146;43.850;25.948;2023-03-16T01:08:29;51.35;;;27.27;;
71343;SDS011;59146;43.850;25.948;2023-03-16T01:11:00;54.92;;;30.42;;
71343;SDS011;59146;43.850;25.948;2023-03-16T01:13:29;56.42;;;31.70;;
71343;SDS011;59146;43.850;25.948;2023-03-16T01:15:56;47.67;;;29.50;;
71343;SDS011;59146;43.850;25.948;2023-03-16T01:18:22;50.20;;;28.83;;
71343;SDS011;59146;43.850;25.948;2023-03-16T01:20:48;51.03;;;30.30;;
71343;SDS011;59146;43.850;25.948;2023-03-16T01:23:17;51.33;;;31.88;;
71343;SDS011;59146;43.850;25.948;2023-03-16T01:25:44;59.88;;;30.70;;
71343;SDS011;59146;43.850;25.948;2023-03-16T01:28:17;46.08;;;28.90;;
71343;SDS011;59146;43.850;25.948;2023-03-16T01:30:48;51.63;;;29.65;;
71343;SDS011;59146;43.850;25.948;2023-03-16T01:33:18;48.30;;;30.48;;
71343;SDS011;59146;43.850;25.948;2023-03-16T01:35:51;56.45;;;32.38;;
71343;SDS011;59146;43.850;25.948;2023-03-16T01:38:26;52.13;;;30.42;;
71343;SDS011;59146;43.850;25.948;2023-03-16T01:40:52;53.42;;;31.15;;
71343;SDS011;59146;43.850;25.948;2023-03-16T01:43:19;58.25;;;32.85;;
71343;SDS011;59146;43.850;25.948;2023-03-16T01:48:28;58.78;;;31.83;;
71343;SDS011;59146;43.850;25.948;2023-03-16T01:51:13;60.40;;;33.92;;
71343;SDS011;59146;43.850;25.948;2023-03-16T01:53:52;62.83;;;35.00;;
71343;SDS011;59146;43.850;25.948;2023-03-16T01:56:23;61.03;;;35.83;;
71343;SDS011;59146;43.850;25.948;2023-03-16T01:58:54;62.55;;;32.50;;
71343;SDS011;59146;43.850;25.948;2023-03-16T02:01:23;67.72;;;35.63;;
71343;SDS011;59146;43.850;25.948;2023-03-16T02:03:53;60.38;;;34.08;;
71343;SDS011;59146;43.850;25.948;2023-03-16T02:06:21;62.38;;;35.80;;
71343;SDS011;59146;43.850;25.948;2023-03-16T02:08:49;68.47;;;37.28;;
71343;SDS011;59146;43.850;25.948;2023-03-16T02:11:19;64.25;;;35.45;;
71343;SDS011;59146;43.850;25.948;2023-03-16T02:13:46;58.05;;;35.53;;
71343;SDS011;59146;43.850;25.948;2023-03-16T02:16:13;59.70;;;36.53;;
71343;SDS011;59146;43.850;25.948;2023-03-16T02:18:46;60.47;;;34.83;;
71343;SDS011;59146;43.850;25.948;2023-03-16T02:23:57;65.60;;;36.80;;
71343;SDS011;59146;43.850;25.948;2023-03-16T02:26:26;69.38;;;36.90;;
71343;SDS011;59146;43.850;25.948;2023-03-16T02:31:43;61.95;;;36.67;;
71343;SDS011;59146;43.850;25.948;2023-03-16T02:34:09;67.53;;;36.38;;
71343;SDS011;59146;43.850;25.948;2023-03-16T02:36:37;69.22;;;38.47;;
71343;SDS011;59146;43.850;25.948;2023-03-16T02:39:05;69.55;;;37.35;;
71343;SDS011;59146;43.850;25.948;2023-03-16T02:41:31;63.63;;;35.03;;
71343;SDS011;59146;43.850;25.948;2023-03-16T02:44:03;63.08;;;36.45;;
71343;SDS011;59146;43.850;25.948;2023-03-16T02:46:38;58.90;;;35.53;;
71343;SDS011;59146;43.850;25.948;2023-03-16T02:49:18;59.05;;;35.85;;
71343;SDS011;59146;43.850;25.948;2023-03-16T02:51:50;60.78;;;33.53;;
71343;SDS011;59146;43.850;25.948;2023-03-16T02:54:15;60.22;;;35.63;;
71343;SDS011;59146;43.850;25.948;2023-03-16T02:56:41;58.65;;;34.38;;
71343;SDS011;59146;43.850;25.948;2023-03-16T02:59:06;61.42;;;36.05;;
71343;SDS011;59146;43.850;25.948;2023-03-16T03:01:32;66.70;;;36.88;;
71343;SDS011;59146;43.850;25.948;2023-03-16T03:03:59;58.30;;;33.17;;
71343;SDS011;59146;43.850;25.948;2023-03-16T03:06:25;61.17;;;34.47;;
71343;SDS011;59146;43.850;25.948;2023-03-16T03:08:51;55.33;;;33.20;;
71343;SDS011;59146;43.850;25.948;2023-03-16T03:11:16;57.72;;;36.03;;
71343;SDS011;59146;43.850;25.948;2023-03-16T03:13:43;56.75;;;35.45;;
71343;SDS011;59146;43.850;25.948;2023-03-16T03:16:09;55.30;;;34.33;;
71343;SDS011;59146;43.850;25.948;2023-03-16T03:18:35;55.88;;;33.00;;
71343;SDS011;59146;43.850;25.948;2023-03-16T03:21:00;52.63;;;33.40;;
71343;SDS011;59146;43.850;25.948;2023-03-16T03:23:26;57.22;;;34.65;;
71343;SDS011;59146;43.850;25.948;2023-03-16T03:25:51;53.42;;;33.97;;
71343;SDS011;59146;43.850;25.948;2023-03-16T03:28:16;52.85;;;34.95;;
71343;SDS011;59146;43.850;25.948;2023-03-16T03:30:42;58.40;;;33.75;;
71343;SDS011;59146;43.850;25.948;2023-03-16T03:33:07;60.60;;;34.65;;
71343;SDS011;59146;43.850;25.948;2023-03-16T03:35:33;52.58;;;32.90;;
71343;SDS011;59146;43.850;25.948;2023-03-16T03:37:58;48.53;;;28.88;;
71343;SDS011;59146;43.850;25.948;2023-03-16T03:40:23;48.75;;;27.60;;
71343;SDS011;59146;43.850;25.948;2023-03-16T03:42:49;51.30;;;28.67;;
71343;SDS011;59146;43.850;25.948;2023-03-16T03:45:15;45.97;;;26.73;;
71343;SDS011;59146;43.850;25.948;2023-03-16T03:47:41;46.17;;;26.77;;
71343;SDS011;59146;43.850;25.948;2023-03-16T03:50:08;48.55;;;28.02;;
71343;SDS011;59146;43.850;25.948;2023-03-16T03:52:36;41.45;;;24.48;;
71343;SDS011;59146;43.850;25.948;2023-03-16T03:55:01;47.72;;;27.83;;
71343;SDS011;59146;43.850;25.948;2023-03-16T03:57:26;41.08;;;25.48;;
71343;SDS011;59146;43.850;25.948;2023-03-16T03:59:52;53.88;;;29.15;;
71343;SDS011;59146;43.850;25.948;2023-03-16T04:02:17;44.17;;;26.33;;
71343;SDS011;59146;43.850;25.948;2023-03-16T04:04:43;39.33;;;24.63;;
71343;SDS011;59146;43.850;25.948;2023-03-16T04:07:08;48.10;;;26.08;;
71343;SDS011;59146;43.850;25.948;2023-03-16T04:09:34;47.83;;;22.63;;
71343;SDS011;59146;43.850;25.948;2023-03-16T04:12:00;39.40;;;24.50;;
71343;SDS011;59146;43.850;25.948;2023-03-16T04:14:27;46.63;;;26.98;;
71343;SDS011;59146;43.850;25.948;2023-03-16T04:16:53;52.88;;;26.95;;
71343;SDS011;59146;43.850;25.948;2023-03-16T04:19:22;47.25;;;26.25;;
71343;SDS011;59146;43.850;25.948;2023-03-16T04:21:48;42.55;;;25.00;;
71343;SDS011;59146;43.850;25.948;2023-03-16T04:24:15;40.55;;;24.65;;
71343;SDS011;59146;43.850;25.948;2023-03-16T04:26:41;48.92;;;27.45;;
71343;SDS011;59146;43.850;25.948;2023-03-16T04:29:09;40.05;;;22.63;;
71343;SDS011;59146;43.850;25.948;2023-03-16T04:31:35;39.67;;;24.77;;
71343;SDS011;59146;43.850;25.948;2023-03-16T04:34:01;35.30;;;23.02;;
71343;SDS011;59146;43.850;25.948;2023-03-16T04:36:26;38.42;;;22.08;;
71343;SDS011;59146;43.850;25.948;2023-03-16T04:38:52;35.55;;;20.52;;
71343;SDS011;59146;43.850;25.948;2023-03-16T04:41:18;33.28;;;17.02;;
71343;SDS011;59146;43.850;25.948;2023-03-16T04:43:43;33.03;;;20.35;;
71343;SDS011;59146;43.850;25.948;2023-03-16T04:46:09;29.75;;;17.27;;
71343;SDS011;59146;43.850;25.948;2023-03-16T04:48:35;24.30;;;15.48;;
71343;SDS011;59146;43.850;25.948;2023-03-16T04:51:01;28.33;;;15.57;;
71343;SDS011;59146;43.850;25.948;2023-03-16T04:53:30;26.50;;;15.63;;
71343;SDS011;59146;43.850;25.948;2023-03-16T04:55:56;24.33;;;14.73;;
71343;SDS011;59146;43.850;25.948;2023-03-16T04:58:26;23.70;;;15.85;;
71343;SDS011;59146;43.850;25.948;2023-03-16T05:00:51;32.92;;;16.73;;
71343;SDS011;59146;43.850;25.948;2023-03-16T05:03:17;22.88;;;15.30;;
71343;SDS011;59146;43.850;25.948;2023-03-16T05:05:45;25.02;;;15.30;;
71343;SDS011;59146;43.850;25.948;2023-03-16T05:08:10;30.67;;;16.58;;
71343;SDS011;59146;43.850;25.948;2023-03-16T05:10:36;26.10;;;16.80;;
71343;SDS011;59146;43.850;25.948;2023-03-16T05:13:02;22.30;;;15.70;;
71343;SDS011;59146;43.850;25.948;2023-03-16T05:15:28;27.13;;;15.15;;
71343;SDS011;59146;43.850;25.948;2023-03-16T05:17:53;23.95;;;16.13;;
71343;SDS011;59146;43.850;25.948;2023-03-16T05:20:19;28.35;;;15.93;;
71343;SDS011;59146;43.850;25.948;2023-03-16T05:22:46;28.77;;;16.73;;
71343;SDS011;59146;43.850;25.948;2023-03-16T05:25:13;27.85;;;16.58;;
71343;SDS011;59146;43.850;25.948;2023-03-16T05:27:46;25.08;;;15.27;;
71343;SDS011;59146;43.850;25.948;2023-03-16T05:30:15;26.60;;;15.27;;
71343;SDS011;59146;43.850;25.948;2023-03-16T05:32:41;24.98;;;14.45;;
71343;SDS011;59146;43.850;25.948;2023-03-16T05:35:07;20.70;;;13.95;;
71343;SDS011;59146;43.850;25.948;2023-03-16T05:37:34;29.63;;;14.40;;
71343;SDS011;59146;43.850;25.948;2023-03-16T05:40:02;26.77;;;14.55;;
71343;SDS011;59146;43.850;25.948;2023-03-16T05:42:54;21.25;;;12.90;;
71343;SDS011;59146;43.850;25.948;2023-03-16T05:45:21;27.05;;;14.90;;
71343;SDS011;59146;43.850;25.948;2023-03-16T05:47:47;19.75;;;14.00;;
71343;SDS011;59146;43.850;25.948;2023-03-16T05:50:13;23.65;;;14.13;;
71343;SDS011;59146;43.850;25.948;2023-03-16T05:52:41;25.73;;;14.90;;
71343;SDS011;59146;43.850;25.948;2023-03-16T05:55:08;25.52;;;14.30;;
71343;SDS011;59146;43.850;25.948;2023-03-16T05:57:35;27.05;;;15.38;;
71343;SDS011;59146;43.850;25.948;2023-03-16T06:00:02;30.92;;;15.30;;
71343;SDS011;59146;43.850;25.948;2023-03-16T06:02:38;28.85;;;16.05;;
71343;SDS011;59146;43.850;25.948;2023-03-16T06:05:04;26.40;;;14.73;;
71343;SDS011;59146;43.850;25.948;2023-03-16T06:07:31;30.45;;;13.77;;
71343;SDS011;59146;43.850;25.948;2023-03-16T06:09:57;31.30;;;17.40;;
71343;SDS011;59146;43.850;25.948;2023-03-16T06:12:22;25.38;;;14.52;;
71343;SDS011;59146;43.850;25.948;2023-03-16T06:14:47;28.95;;;14.55;;
71343;SDS011;59146;43.850;25.948;2023-03-16T06:17:13;30.00;;;15.63;;
71343;SDS011;59146;43.850;25.948;2023-03-16T06:19:38;32.97;;;15.52;;
71343;SDS011;59146;43.850;25.948;2023-03-16T06:22:03;26.60;;;14.02;;
71343;SDS011;59146;43.850;25.948;2023-03-16T06:24:29;27.55;;;13.70;;
71343;SDS011;59146;43.850;25.948;2023-03-16T06:26:55;22.50;;;14.25;;
71343;SDS011;59146;43.850;25.948;2023-03-16T06:29:20;27.02;;;13.82;;
71343;SDS011;59146;43.850;25.948;2023-03-16T06:31:46;19.20;;;12.70;;
71343;SDS011;59146;43.850;25.948;2023-03-16T06:34:11;19.27;;;12.40;;
71343;SDS011;59146;43.850;25.948;2023-03-16T06:36:36;20.50;;;13.43;;
71343;SDS011;59146;43.850;25.948;2023-03-16T06:39:03;24.60;;;13.52;;
71343;SDS011;59146;43.850;25.948;2023-03-16T06:41:29;16.63;;;11.73;;
71343;SDS011;59146;43.850;25.948;2023-03-16T06:43:55;21.48;;;12.93;;
71343;SDS011;59146;43.850;25.948;2023-03-16T06:46:21;22.05;;;12.77;;
71343;SDS011;59146;43.850;25.948;2023-03-16T06:48:47;22.13;;;12.50;;
71343;SDS011;59146;43.850;25.948;2023-03-16T06:51:12;18.50;;;12.05;;
71343;SDS011;59146;43.850;25.948;2023-03-16T06:53:37;25.15;;;12.35;;
71343;SDS011;59146;43.850;25.948;2023-03-16T06:56:03;23.35;;;10.68;;
71343;SDS011;59146;43.850;25.948;2023-03-16T06:58:29;20.50;;;12.40;;
71343;SDS011;59146;43.850;25.948;2023-03-16T07:00:55;23.90;;;13.13;;
71343;SDS011;59146;43.850;25.948;2023-03-16T07:03:20;28.48;;;14.00;;
71343;SDS011;59146;43.850;25.948;2023-03-16T07:05:46;39.00;;;12.23;;
71343;SDS011;59146;43.850;25.948;2023-03-16T07:08:11;27.33;;;12.98;;
71343;SDS011;59146;43.850;25.948;2023-03-16T07:10:39;25.52;;;11.77;;
71343;SDS011;59146;43.850;25.948;2023-03-16T07:13:04;26.13;;;12.13;;
71343;SDS011;59146;43.850;25.948;2023-03-16T07:15:30;24.80;;;14.18;;
71343;SDS011;59146;43.850;25.948;2023-03-16T07:17:55;22.70;;;13.10;;
71343;SDS011;59146;43.850;25.948;2023-03-16T07:20:21;26.48;;;14.30;;
71343;SDS011;59146;43.850;25.948;2023-03-16T07:22:46;22.25;;;12.75;;
71343;SDS011;59146;43.850;25.948;2023-03-16T07:25:12;27.77;;;13.10;;
71343;SDS011;59146;43.850;25.948;2023-03-16T07:27:38;25.40;;;13.27;;
71343;SDS011;59146;43.850;25.948;2023-03-16T07:30:05;32.08;;;13.45;;
71343;SDS011;59146;43.850;25.948;2023-03-16T07:32:31;26.63;;;13.02;;
71343;SDS011;59146;43.850;25.948;2023-03-16T07:34:57;31.67;;;14.52;;
71343;SDS011;59146;43.850;25.948;2023-03-16T07:37:23;28.83;;;13.27;;
71343;SDS011;59146;43.850;25.948;2023-03-16T07:39:49;37.00;;;15.82;;
71343;SDS011;59146;43.850;25.948;2023-03-16T07:42:15;28.70;;;13.70;;
71343;SDS011;59146;43.850;25.948;2023-03-16T07:44:41;26.50;;;14.70;;
71343;SDS011;59146;43.850;25.948;2023-03-16T07:47:06;30.92;;;15.57;;
71343;SDS011;59146;43.850;25.948;2023-03-16T07:49:33;31.80;;;14.63;;
71343;SDS011;59146;43.850;25.948;2023-03-16T07:51:59;28.45;;;14.73;;
71343;SDS011;59146;43.850;25.948;2023-03-16T07:54:24;25.60;;;13.20;;
71343;SDS011;59146;43.850;25.948;2023-03-16T07:56:49;23.92;;;14.13;;
71343;SDS011;59146;43.850;25.948;2023-03-16T07:59:15;32.10;;;13.45;;
71343;SDS011;59146;43.850;25.948;2023-03-16T08:01:40;25.15;;;13.27;;
71343;SDS011;59146;43.850;25.948;2023-03-16T08:04:06;21.50;;;13.38;;
71343;SDS011;59146;43.850;25.948;2023-03-16T08:06:31;30.30;;;15.48;;
71343;SDS011;59146;43.850;25.948;2023-03-16T08:08:57;29.48;;;15.48;;
71343;SDS011;59146;43.850;25.948;2023-03-16T08:11:23;27.50;;;14.15;;
71343;SDS011;59146;43.850;25.948;2023-03-16T08:13:49;26.55;;;15.65;;
71343;SDS011;59146;43.850;25.948;2023-03-16T08:16:19;28.13;;;16.50;;
71343;SDS011;59146;43.850;25.948;2023-03-16T08:18:48;32.15;;;16.55;;
71343;SDS011;59146;43.850;25.948;2023-03-16T08:21:14;40.05;;;17.77;;
71343;SDS011;59146;43.850;25.948;2023-03-16T08:23:41;41.35;;;16.77;;
71343;SDS011;59146;43.850;25.948;2023-03-16T08:26:13;30.85;;;16.17;;
71343;SDS011;59146;43.850;25.948;2023-03-16T08:28:41;30.58;;;16.25;;
71343;SDS011;59146;43.850;25.948;2023-03-16T08:31:07;26.65;;;13.70;;
71343;SDS011;59146;43.850;25.948;2023-03-16T08:33:33;35.22;;;16.70;;
71343;SDS011;59146;43.850;25.948;2023-03-16T08:36:00;30.02;;;15.82;;
71343;SDS011;59146;43.850;25.948;2023-03-16T08:38:26;26.35;;;15.32;;
71343;SDS011;59146;43.850;25.948;2023-03-16T08:40:51;30.77;;;15.50;;
71343;SDS011;59146;43.850;25.948;2023-03-16T08:43:17;35.50;;;15.65;;
71343;SDS011;59146;43.850;25.948;2023-03-16T08:45:46;32.25;;;16.23;;
71343;SDS011;59146;43.850;25.948;2023-03-16T08:48:12;27.10;;;15.68;;
71343;SDS011;59146;43.850;25.948;2023-03-16T08:50:42;34.92;;;16.05;;
71343;SDS011;59146;43.850;25.948;2023-03-16T08:53:09;31.80;;;15.20;;
71343;SDS011;59146;43.850;25.948;2023-03-16T08:55:36;21.52;;;13.13;;
71343;SDS011;59146;43.850;25.948;2023-03-16T08:58:02;22.65;;;14.52;;
71343;SDS011;59146;43.850;25.948;2023-03-16T09:00:28;29.15;;;14.63;;
71343;SDS011;59146;43.850;25.948;2023-03-16T09:02:54;34.92;;;15.27;;
71343;SDS011;59146;43.850;25.948;2023-03-16T09:05:20;28.08;;;14.75;;
71343;SDS011;59146;43.850;25.948;2023-03-16T09:07:47;28.10;;;13.70;;
71343;SDS011;59146;43.850;25.948;2023-03-16T09:10:13;21.77;;;13.23;;
71343;SDS011;59146;43.850;25.948;2023-03-16T09:12:40;33.78;;;14.45;;
71343;SDS011;59146;43.850;25.948;2023-03-16T09:15:09;28.80;;;13.45;;
71343;SDS011;59146;43.850;25.948;2023-03-16T09:17:36;28.73;;;14.70;;
71343;SDS011;59146;43.850;25.948;2023-03-16T09:20:04;30.67;;;14.68;;
71343;SDS011;59146;43.850;25.948;2023-03-16T09:22:33;38.30;;;15.73;;
71343;SDS011;59146;43.850;25.948;2023-03-16T09:24:59;25.70;;;13.90;;
71343;SDS011;59146;43.850;25.948;2023-03-16T09:27:24;25.65;;;13.10;;
71343;SDS011;59146;43.850;25.948;2023-03-16T09:29:50;21.45;;;13.10;;
71343;SDS011;59146;43.850;25.948;2023-03-16T09:32:17;24.10;;;13.68;;
71343;SDS011;59146;43.850;25.948;2023-03-16T09:34:42;26.35;;;14.23;;
71343;SDS011;59146;43.850;25.948;2023-03-16T09:37:08;23.65;;;14.20;;
71343;SDS011;59146;43.850;25.948;2023-03-16T09:39:34;24.35;;;13.50;;
71343;SDS011;59146;43.850;25.948;2023-03-16T09:42:07;24.08;;;13.82;;
71343;SDS011;59146;43.850;25.948;2023-03-16T09:47:33;23.67;;;13.90;;
71343;SDS011;59146;43.850;25.948;2023-03-16T09:50:05;25.98;;;15.20;;
71343;SDS011;59146;43.850;25.948;2023-03-16T09:55:26;21.98;;;14.43;;
71343;SDS011;59146;43.850;25.948;2023-03-16T09:57:53;27.98;;;16.13;;
71343;SDS011;59146;43.850;25.948;2023-03-16T10:00:21;25.73;;;14.77;;
71343;SDS011;59146;43.850;25.948;2023-03-16T10:05:15;26.08;;;14.60;;
71343;SDS011;59146;43.850;25.948;2023-03-16T10:13:02;21.52;;;13.15;;
71343;SDS011;59146;43.850;25.948;2023-03-16T10:15:37;22.98;;;12.68;;
71343;SDS011;59146;43.850;25.948;2023-03-16T10:18:23;18.13;;;12.13;;
71343;SDS011;59146;43.850;25.948;2023-03-16T10:20:53;20.48;;;12.88;;
71343;SDS011;59146;43.850;25.948;2023-03-16T10:23:20;18.05;;;13.68;;
71343;SDS011;59146;43.850;25.948;2023-03-16T10:25:49;19.42;;;13.65;;
71343;SDS011;59146;43.850;25.948;2023-03-16T10:28:22;24.08;;;14.18;;
71343;SDS011;59146;43.850;25.948;2023-03-16T10:30:53;17.42;;;12.63;;
71343;SDS011;59146;43.850;25.948;2023-03-16T10:33:23;15.13;;;11.73;;
71343;SDS011;59146;43.850;25.948;2023-03-16T10:38:58;16.20;;;10.95;;
71343;SDS011;59146;43.850;25.948;2023-03-16T10:41:31;18.65;;;13.23;;
71343;SDS011;59146;43.850;25.948;2023-03-16T10:44:14;15.85;;;10.25;;
71343;SDS011;59146;43.850;25.948;2023-03-16T10:46:41;14.05;;;10.65;;
71343;SDS011;59146;43.850;25.948;2023-03-16T10:51:45;15.98;;;11.00;;
71343;SDS011;59146;43.850;25.948;2023-03-16T10:54:14;15.55;;;11.27;;
71343;SDS011;59146;43.850;25.948;2023-03-16T10:56:43;15.55;;;10.90;;
71343;SDS011;59146;43.850;25.948;2023-03-16T10:59:29;20.63;;;11.07;;
71343;SDS011;59146;43.850;25.948;2023-03-16T11:01:58;16.92;;;10.30;;
71343;SDS011;59146;43.850;25.948;2023-03-16T11:04:24;15.73;;;10.05;;
71343;SDS011;59146;43.850;25.948;2023-03-16T11:06:55;13.13;;;10.15;;
71343;SDS011;59146;43.850;25.948;2023-03-16T11:09:25;17.05;;;11.43;;
71343;SDS011;59146;43.850;25.948;2023-03-16T11:11:59;14.52;;;10.07;;
71343;SDS011;59146;43.850;25.948;2023-03-16T11:14:36;13.15;;;8.80;;
71343;SDS011;59146;43.850;25.948;2023-03-16T11:17:15;15.15;;;10.10;;
71343;SDS011;59146;43.850;25.948;2023-03-16T11:19:52;13.68;;;9.95;;
71343;SDS011;59146;43.850;25.948;2023-03-16T11:22:23;17.98;;;10.10;;
71343;SDS011;59146;43.850;25.948;2023-03-16T11:30:26;22.45;;;13.07;;
71343;SDS011;59146;43.850;25.948;2023-03-16T11:32:55;16.35;;;10.80;;
71343;SDS011;59146;43.850;25.948;2023-03-16T11:38:36;14.82;;;9.75;;
71343;SDS011;59146;43.850;25.948;2023-03-16T11:41:11;13.38;;;9.93;;
71343;SDS011;59146;43.850;25.948;2023-03-16T11:43:49;16.67;;;9.75;;
71343;SDS011;59146;43.850;25.948;2023-03-16T11:52:10;26.10;;;11.10;;
71343;SDS011;59146;43.850;25.948;2023-03-16T12:00:06;17.40;;;10.10;;
71343;SDS011;59146;43.850;25.948;2023-03-16T12:08:05;18.67;;;11.10;;
71343;SDS011;59146;43.850;25.948;2023-03-16T12:11:05;17.15;;;10.50;;
71343;SDS011;59146;43.850;25.948;2023-03-16T12:16:26;16.67;;;9.82;;
71343;SDS011;59146;43.850;25.948;2023-03-16T12:18:57;13.00;;;9.18;;
71343;SDS011;59146;43.850;25.948;2023-03-16T12:24:10;21.35;;;10.75;;
71343;SDS011;59146;43.850;25.948;2023-03-16T12:26:41;20.05;;;10.45;;
71343;SDS011;59146;43.850;25.948;2023-03-16T12:29:13;24.15;;;11.02;;
71343;SDS011;59146;43.850;25.948;2023-03-16T12:37:26;18.27;;;11.98;;
71343;SDS011;59146;43.850;25.948;2023-03-16T12:43:06;16.73;;;10.45;;
71343;SDS011;59146;43.850;25.948;2023-03-16T12:50:48;19.33;;;12.07;;
71343;SDS011;59146;43.850;25.948;2023-03-16T12:53:26;15.32;;;9.65;;
71343;SDS011;59146;43.850;25.948;2023-03-16T12:56:04;26.75;;;13.18;;
71343;SDS011;59146;43.850;25.948;2023-03-16T12:58:32;25.02;;;13.65;;
71343;SDS011;59146;43.850;25.948;2023-03-16T13:00:58;20.33;;;12.73;;
71343;SDS011;59146;43.850;25.948;2023-03-16T13:03:24;21.58;;;12.65;;
71343;SDS011;59146;43.850;25.948;2023-03-16T13:05:55;21.55;;;12.63;;
71343;SDS011;59146;43.850;25.948;2023-03-16T13:08:24;18.20;;;12.15;;
71343;SDS011;59146;43.850;25.948;2023-03-16T13:10:59;17.40;;;11.43;;
71343;SDS011;59146;43.850;25.948;2023-03-16T13:13:25;15.65;;;12.40;;
71343;SDS011;59146;43.850;25.948;2023-03-16T13:16:00;14.90;;;10.35;;
71343;SDS011;59146;43.850;25.948;2023-03-16T13:18:34;16.02;;;11.93;;
71343;SDS011;59146;43.850;25.948;2023-03-16T13:21:12;21.73;;;12.75;;
71343;SDS011;59146;43.850;25.948;2023-03-16T13:31:51;18.75;;;13.88;;
71343;SDS011;59146;43.850;25.948;2023-03-16T13:34:30;18.70;;;12.68;;
71343;SDS011;59146;43.850;25.948;2023-03-16T13:37:00;18.60;;;13.93;;
71343;SDS011;59146;43.850;25.948;2023-03-16T13:39:27;20.40;;;13.55;;
71343;SDS011;59146;43.850;25.948;2023-03-16T13:42:11;23.85;;;14.52;;
71343;SDS011;59146;43.850;25.948;2023-03-16T13:44:41;23.30;;;13.57;;
71343;SDS011;59146;43.850;25.948;2023-03-16T13:47:06;22.33;;;14.00;;
71343;SDS011;59146;43.850;25.948;2023-03-16T13:49:43;19.92;;;13.98;;
71343;SDS011;59146;43.850;25.948;2023-03-16T13:54:55;18.77;;;12.80;;
71343;SDS011;59146;43.850;25.948;2023-03-16T13:57:23;23.30;;;14.23;;
71343;SDS011;59146;43.850;25.948;2023-03-16T13:59:59;21.75;;;13.45;;
71343;SDS011;59146;43.850;25.948;2023-03-16T14:02:29;21.38;;;14.20;;
71343;SDS011;59146;43.850;25.948;2023-03-16T14:04:54;26.30;;;14.00;;
71343;SDS011;59146;43.850;25.948;2023-03-16T14:07:20;24.73;;;11.63;;
71343;SDS011;59146;43.850;25.948;2023-03-16T14:09:47;32.63;;;12.82;;
71343;SDS011;59146;43.850;25.948;2023-03-16T14:12:15;19.60;;;10.98;;
71343;SDS011;59146;43.850;25.948;2023-03-16T14:14:44;22.88;;;11.18;;
71343;SDS011;59146;43.850;25.948;2023-03-16T14:17:17;21.73;;;12.18;;
71343;SDS011;59146;43.850;25.948;2023-03-16T14:22:16;18.58;;;10.43;;
71343;SDS011;59146;43.850;25.948;2023-03-16T14:24:45;16.10;;;10.13;;
71343;SDS011;59146;43.850;25.948;2023-03-16T14:27:21;16.30;;;9.57;;
71343;SDS011;59146;43.850;25.948;2023-03-16T14:29:57;19.13;;;10.75;;
71343;SDS011;59146;43.850;25.948;2023-03-16T14:32:26;20.80;;;11.32;;
71343;SDS011;59146;43.850;25.948;2023-03-16T14:35:55;16.13;;;8.88;;
71343;SDS011;59146;43.850;25.948;2023-03-16T14:38:38;20.42;;;11.32;;
71343;SDS011;59146;43.850;25.948;2023-03-16T14:43:36;17.38;;;10.80;;
71343;SDS011;59146;43.850;25.948;2023-03-16T14:46:12;18.35;;;10.27;;
71343;SDS011;59146;43.850;25.948;2023-03-16T14:48:41;22.08;;;11.93;;
71343;SDS011;59146;43.850;25.948;2023-03-16T14:51:13;22.08;;;12.20;;
71343;SDS011;59146;43.850;25.948;2023-03-16T14:53:39;19.02;;;10.60;;
71343;SDS011;59146;43.850;25.948;2023-03-16T14:56:09;14.18;;;10.00;;
71343;SDS011;59146;43.850;25.948;2023-03-16T14:58:37;11.93;;;9.30;;
71343;SDS011;59146;43.850;25.948;2023-03-16T15:01:03;13.00;;;9.27;;
71343;SDS011;59146;43.850;25.948;2023-03-16T15:03:30;11.07;;;8.80;;
71343;SDS011;59146;43.850;25.948;2023-03-16T15:06:00;9.90;;;7.07;;
71343;SDS011;59146;43.850;25.948;2023-03-16T15:08:27;11.57;;;8.23;;
71343;SDS011;59146;43.850;25.948;2023-03-16T15:10:59;11.15;;;7.65;;
71343;SDS011;59146;43.850;25.948;2023-03-16T15:13:28;10.60;;;7.15;;
71343;SDS011;59146;43.850;25.948;2023-03-16T15:16:08;9.18;;;7.13;;
71343;SDS011;59146;43.850;25.948;2023-03-16T15:18:35;13.70;;;7.72;;
71343;SDS011;59146;43.850;25.948;2023-03-16T15:21:03;11.48;;;7.93;;
71343;SDS011;59146;43.850;25.948;2023-03-16T15:23:41;13.90;;;8.27;;
71343;SDS011;59146;43.850;25.948;2023-03-16T15:26:09;12.98;;;8.77;;
71343;SDS011;59146;43.850;25.948;2023-03-16T15:28:36;11.13;;;8.35;;
71343;SDS011;59146;43.850;25.948;2023-03-16T15:31:02;13.25;;;8.55;;
71343;SDS011;59146;43.850;25.948;2023-03-16T15:33:29;15.43;;;8.73;;
71343;SDS011;59146;43.850;25.948;2023-03-16T15:35:56;12.70;;;9.18;;
71343;SDS011;59146;43.850;25.948;2023-03-16T15:38:30;15.85;;;9.30;;
71343;SDS011;59146;43.850;25.948;2023-03-16T15:40:57;10.82;;;8.65;;
71343;SDS011;59146;43.850;25.948;2023-03-16T15:43:24;15.43;;;10.50;;
71343;SDS011;59146;43.850;25.948;2023-03-16T15:45:53;12.95;;;10.25;;
71343;SDS011;59146;43.850;25.948;2023-03-16T15:48:20;16.98;;;11.30;;